sensor_id;sensor_type;location;lat;lon;timestamp;temperature;humidity
40758;DHT22;26462;47.384;19.218;2024-03-23T00:54:30;8.10;99.90
40758;DHT22;26462;47.384;19.218;2024-03-23T00:56:56;8.10;99.90
40758;DHT22;26462;47.384;19.218;2024-03-23T00:59:24;8.10;99.90
40758;DHT22;26462;47.384;19.218;2024-03-23T01:01:53;8.10;99.90
40758;DHT22;26462;47.384;19.218;2024-03-23T01:04:20;8.10;99.90
40758;DHT22;26462;47.384;19.218;2024-03-23T01:06:47;8.10;99.90
40758;DHT22;26462;47.384;19.218;2024-03-23T01:09:15;8.10;99.90
40758;DHT22;26462;47.384;19.218;2024-03-23T01:11:42;8.00;99.90
40758;DHT22;26462;47.384;19.218;2024-03-23T01:14:10;8.00;99.90
40758;DHT22;26462;47.384;19.218;2024-03-23T01:16:36;8.00;99.90
40758;DHT22;26462;47.384;19.218;2024-03-23T01:19:03;8.00;99.90
40758;DHT22;26462;47.384;19.218;2024-03-23T01:21:30;7.90;99.90
40758;DHT22;26462;47.384;19.218;2024-03-23T01:23:57;7.90;99.90
40758;DHT22;26462;47.384;19.218;2024-03-23T01:26:23;7.80;99.90
40758;DHT22;26462;47.384;19.218;2024-03-23T01:28:53;7.80;99.90
40758;DHT22;26462;47.384;19.218;2024-03-23T01:31:19;7.80;99.90
40758;DHT22;26462;47.384;19.218;2024-03-23T01:33:47;7.80;99.90
40758;DHT22;26462;47.384;19.218;2024-03-23T01:36:13;7.80;99.90
40758;DHT22;26462;47.384;19.218;2024-03-23T01:38:40;7.70;99.90
40758;DHT22;26462;47.384;19.218;2024-03-23T01:41:07;7.70;99.90
40758;DHT22;26462;47.384;19.218;2024-03-23T01:43:34;7.70;99.90
40758;DHT22;26462;47.384;19.218;2024-03-23T01:46:02;7.60;99.90
40758;DHT22;26462;47.384;19.218;2024-03-23T01:48:29;7.60;99.90
40758;DHT22;26462;47.384;19.218;2024-03-23T01:50:56;7.60;99.90
40758;DHT22;26462;47.384;19.218;2024-03-23T01:53:23;7.60;99.90
40758;DHT22;26462;47.384;19.218;2024-03-23T01:55:51;7.60;99.90
40758;DHT22;26462;47.384;19.218;2024-03-23T01:58:18;7.60;99.90
40758;DHT22;26462;47.384;19.218;2024-03-23T02:00:45;7.60;99.90
40758;DHT22;26462;47.384;19.218;2024-03-23T02:03:26;7.60;99.90
40758;DHT22;26462;47.384;19.218;2024-03-23T02:05:53;7.50;99.90
40758;DHT22;26462;47.384;19.218;2024-03-23T02:08:22;7.60;99.90
40758;DHT22;26462;47.384;19.218;2024-03-23T02:10:48;7.50;99.90
40758;DHT22;26462;47.384;19.218;2024-03-23T02:13:17;7.50;99.90
40758;DHT22;26462;47.384;19.218;2024-03-23T02:15:44;7.50;99.90
40758;DHT22;26462;47.384;19.218;2024-03-23T02:18:11;7.50;99.90
40758;DHT22;26462;47.384;19.218;2024-03-23T02:20:39;7.50;99.90
40758;DHT22;26462;47.384;19.218;2024-03-23T02:23:14;7.40;99.90
40758;DHT22;26462;47.384;19.218;2024-03-23T02:25:41;7.40;99.90
40758;DHT22;26462;47.384;19.218;2024-03-23T02:28:08;7.30;99.90
40758;DHT22;26462;47.384;19.218;2024-03-23T02:30:34;7.30;99.90
40758;DHT22;26462;47.384;19.218;2024-03-23T02:33:02;7.30;99.90
40758;DHT22;26462;47.384;19.218;2024-03-23T02:35:28;7.30;99.90
40758;DHT22;26462;47.384;19.218;2024-03-23T02:37:56;7.20;99.90
40758;DHT22;26462;47.384;19.218;2024-03-23T02:40:24;7.30;99.90
40758;DHT22;26462;47.384;19.218;2024-03-23T02:42:52;7.30;99.90
40758;DHT22;26462;47.384;19.218;2024-03-23T02:45:18;7.20;99.90
40758;DHT22;26462;47.384;19.218;2024-03-23T02:47:46;7.20;99.90
40758;DHT22;26462;47.384;19.218;2024-03-23T02:50:13;7.20;99.90
40758;DHT22;26462;47.384;19.218;2024-03-23T02:52:41;7.20;99.90
40758;DHT22;26462;47.384;19.218;2024-03-23T02:55:08;7.10;99.90
40758;DHT22;26462;47.384;19.218;2024-03-23T02:57:37;7.10;99.90
40758;DHT22;26462;47.384;19.218;2024-03-23T03:00:04;7.00;99.90
40758;DHT22;26462;47.384;19.218;2024-03-23T03:02:33;7.10;99.90
40758;DHT22;26462;47.384;19.218;2024-03-23T03:04:59;7.00;99.90
40758;DHT22;26462;47.384;19.218;2024-03-23T03:07:27;7.00;99.90
40758;DHT22;26462;47.384;19.218;2024-03-23T03:09:53;7.00;99.90
40758;DHT22;26462;47.384;19.218;2024-03-23T03:12:20;7.00;99.90
40758;DHT22;26462;47.384;19.218;2024-03-23T03:14:48;7.00;99.90
40758;DHT22;26462;47.384;19.218;2024-03-23T03:17:16;7.00;99.90
40758;DHT22;26462;47.384;19.218;2024-03-23T03:19:42;7.00;99.90
40758;DHT22;26462;47.384;19.218;2024-03-23T03:22:10;6.90;99.90
40758;DHT22;26462;47.384;19.218;2024-03-23T03:24:36;6.90;99.90
40758;DHT22;26462;47.384;19.218;2024-03-23T03:27:03;6.90;99.90
40758;DHT22;26462;47.384;19.218;2024-03-23T03:29:30;6.80;99.90
40758;DHT22;26462;47.384;19.218;2024-03-23T03:32:03;6.80;99.90
40758;DHT22;26462;47.384;19.218;2024-03-23T03:34:30;6.80;99.90
40758;DHT22;26462;47.384;19.218;2024-03-23T03:36:57;7.10;99.90
40758;DHT22;26462;47.384;19.218;2024-03-23T03:39:24;6.80;99.90
40758;DHT22;26462;47.384;19.218;2024-03-23T03:41:52;6.80;99.90
40758;DHT22;26462;47.384;19.218;2024-03-23T03:44:18;6.70;99.90
40758;DHT22;26462;47.384;19.218;2024-03-23T03:46:46;6.70;99.90
40758;DHT22;26462;47.384;19.218;2024-03-23T03:49:14;6.70;99.90
40758;DHT22;26462;47.384;19.218;2024-03-23T03:51:41;6.70;99.90
40758;DHT22;26462;47.384;19.218;2024-03-23T03:54:08;6.70;99.90
40758;DHT22;26462;47.384;19.218;2024-03-23T03:56:35;6.60;99.90
40758;DHT22;26462;47.384;19.218;2024-03-23T03:59:01;6.60;99.90
40758;DHT22;26462;47.384;19.218;2024-03-23T04:01:29;6.60;99.90
40758;DHT22;26462;47.384;19.218;2024-03-23T04:03:55;6.60;99.90
40758;DHT22;26462;47.384;19.218;2024-03-23T04:06:24;6.60;99.90
40758;DHT22;26462;47.384;19.218;2024-03-23T04:08:50;6.60;99.90
40758;DHT22;26462;47.384;19.218;2024-03-23T04:11:17;6.60;99.90
40758;DHT22;26462;47.384;19.218;2024-03-23T04:13:44;6.60;99.90
40758;DHT22;26462;47.384;19.218;2024-03-23T04:16:11;6.60;99.90
40758;DHT22;26462;47.384;19.218;2024-03-23T04:18:38;6.90;99.90
40758;DHT22;26462;47.384;19.218;2024-03-23T04:21:06;6.70;99.90
40758;DHT22;26462;47.384;19.218;2024-03-23T04:23:35;6.60;99.90
40758;DHT22;26462;47.384;19.218;2024-03-23T04:26:04;6.60;99.90
40758;DHT22;26462;47.384;19.218;2024-03-23T04:28:31;6.60;99.90
40758;DHT22;26462;47.384;19.218;2024-03-23T04:31:03;5.80;99.90
40758;DHT22;26462;47.384;19.218;2024-03-23T04:33:30;6.70;99.90
40758;DHT22;26462;47.384;19.218;2024-03-23T04:35:57;6.60;99.90
40758;DHT22;26462;47.384;19.218;2024-03-23T04:38:23;6.60;99.90
40758;DHT22;26462;47.384;19.218;2024-03-23T04:40:55;6.60;99.90
40758;DHT22;26462;47.384;19.218;2024-03-23T04:43:23;6.60;99.90
40758;DHT22;26462;47.384;19.218;2024-03-23T04:45:50;6.60;99.90
40758;DHT22;26462;47.384;19.218;2024-03-23T04:48:20;6.60;99.90
40758;DHT22;26462;47.384;19.218;2024-03-23T04:50:48;6.60;99.90
40758;DHT22;26462;47.384;19.218;2024-03-23T04:53:16;6.60;99.90
40758;DHT22;26462;47.384;19.218;2024-03-23T04:55:44;6.60;99.90
40758;DHT22;26462;47.384;19.218;2024-03-23T04:58:12;6.60;99.90
40758;DHT22;26462;47.384;19.218;2024-03-23T05:00:39;6.70;99.90
40758;DHT22;26462;47.384;19.218;2024-03-23T05:03:06;6.70;99.90
40758;DHT22;26462;47.384;19.218;2024-03-23T05:05:33;6.70;99.90
40758;DHT22;26462;47.384;19.218;2024-03-23T05:08:00;6.70;99.90
40758;DHT22;26462;47.384;19.218;2024-03-23T05:10:27;6.70;99.90
40758;DHT22;26462;47.384;19.218;2024-03-23T05:12:54;6.70;99.90
40758;DHT22;26462;47.384;19.218;2024-03-23T05:15:23;6.70;99.90
40758;DHT22;26462;47.384;19.218;2024-03-23T05:17:50;6.80;99.90
40758;DHT22;26462;47.384;19.218;2024-03-23T05:20:17;6.80;99.90
40758;DHT22;26462;47.384;19.218;2024-03-23T05:22:45;6.90;99.90
40758;DHT22;26462;47.384;19.218;2024-03-23T05:25:12;6.90;99.90
40758;DHT22;26462;47.384;19.218;2024-03-23T05:27:39;6.90;99.90
40758;DHT22;26462;47.384;19.218;2024-03-23T05:30:07;7.00;99.90
40758;DHT22;26462;47.384;19.218;2024-03-23T05:32:36;7.00;99.90
40758;DHT22;26462;47.384;19.218;2024-03-23T05:35:06;7.00;99.90
40758;DHT22;26462;47.384;19.218;2024-03-23T05:37:33;7.00;99.90
40758;DHT22;26462;47.384;19.218;2024-03-23T05:40:01;7.10;99.90
40758;DHT22;26462;47.384;19.218;2024-03-23T05:42:28;7.20;99.90
40758;DHT22;26462;47.384;19.218;2024-03-23T05:44:55;7.20;99.90
40758;DHT22;26462;47.384;19.218;2024-03-23T05:47:22;7.30;99.90
40758;DHT22;26462;47.384;19.218;2024-03-23T05:49:50;7.30;99.90
40758;DHT22;26462;47.384;19.218;2024-03-23T05:52:18;7.40;99.90
40758;DHT22;26462;47.384;19.218;2024-03-23T05:54:47;7.50;99.90
40758;DHT22;26462;47.384;19.218;2024-03-23T05:57:13;7.60;99.90
40758;DHT22;26462;47.384;19.218;2024-03-23T05:59:40;7.60;99.90
40758;DHT22;26462;47.384;19.218;2024-03-23T06:02:07;7.60;99.90
40758;DHT22;26462;47.384;19.218;2024-03-23T06:04:36;7.70;99.90
40758;DHT22;26462;47.384;19.218;2024-03-23T06:07:04;7.80;99.90
40758;DHT22;26462;47.384;19.218;2024-03-23T06:09:32;7.80;99.90
40758;DHT22;26462;47.384;19.218;2024-03-23T06:11:58;7.90;99.90
40758;DHT22;26462;47.384;19.218;2024-03-23T06:14:26;7.90;99.90
40758;DHT22;26462;47.384;19.218;2024-03-23T06:16:52;8.00;99.90
40758;DHT22;26462;47.384;19.218;2024-03-23T06:19:20;8.00;99.90
40758;DHT22;26462;47.384;19.218;2024-03-23T06:21:46;8.10;99.90
40758;DHT22;26462;47.384;19.218;2024-03-23T06:24:15;8.10;99.90
40758;DHT22;26462;47.384;19.218;2024-03-23T06:26:41;8.10;99.90
40758;DHT22;26462;47.384;19.218;2024-03-23T06:29:08;8.20;99.90
40758;DHT22;26462;47.384;19.218;2024-03-23T06:31:35;8.20;99.90
40758;DHT22;26462;47.384;19.218;2024-03-23T06:34:02;8.30;99.90
40758;DHT22;26462;47.384;19.218;2024-03-23T06:36:29;8.40;99.90
40758;DHT22;26462;47.384;19.218;2024-03-23T06:38:57;8.50;99.90
40758;DHT22;26462;47.384;19.218;2024-03-23T06:41:25;8.50;99.90
40758;DHT22;26462;47.384;19.218;2024-03-23T06:43:53;8.70;99.90
40758;DHT22;26462;47.384;19.218;2024-03-23T06:46:19;8.90;99.90
40758;DHT22;26462;47.384;19.218;2024-03-23T06:48:47;9.00;99.90
40758;DHT22;26462;47.384;19.218;2024-03-23T06:51:13;9.00;99.90
40758;DHT22;26462;47.384;19.218;2024-03-23T06:53:41;9.10;99.90
40758;DHT22;26462;47.384;19.218;2024-03-23T06:56:07;9.10;99.90
40758;DHT22;26462;47.384;19.218;2024-03-23T06:58:36;9.20;99.90
40758;DHT22;26462;47.384;19.218;2024-03-23T07:01:02;9.40;99.90
40758;DHT22;26462;47.384;19.218;2024-03-23T07:03:30;9.90;99.90
40758;DHT22;26462;47.384;19.218;2024-03-23T07:05:58;10.30;99.90
40758;DHT22;26462;47.384;19.218;2024-03-23T07:08:25;10.60;99.90
40758;DHT22;26462;47.384;19.218;2024-03-23T07:10:52;10.80;99.90
40758;DHT22;26462;47.384;19.218;2024-03-23T07:13:18;10.80;99.90
40758;DHT22;26462;47.384;19.218;2024-03-23T07:15:52;11.00;99.90
40758;DHT22;26462;47.384;19.218;2024-03-23T07:18:19;11.00;99.90
40758;DHT22;26462;47.384;19.218;2024-03-23T07:20:52;11.00;99.90
40758;DHT22;26462;47.384;19.218;2024-03-23T07:23:19;10.90;99.90
40758;DHT22;26462;47.384;19.218;2024-03-23T07:25:56;10.80;99.90
40758;DHT22;26462;47.384;19.218;2024-03-23T07:28:22;10.80;99.90
40758;DHT22;26462;47.384;19.218;2024-03-23T07:31:02;10.80;99.90
40758;DHT22;26462;47.384;19.218;2024-03-23T07:33:29;11.20;99.90
40758;DHT22;26462;47.384;19.218;2024-03-23T07:35:56;11.50;99.90
40758;DHT22;26462;47.384;19.218;2024-03-23T07:38:23;12.00;99.90
40758;DHT22;26462;47.384;19.218;2024-03-23T07:40:51;12.40;99.90
40758;DHT22;26462;47.384;19.218;2024-03-23T07:43:22;12.80;99.90
40758;DHT22;26462;47.384;19.218;2024-03-23T07:45:52;13.00;99.90
40758;DHT22;26462;47.384;19.218;2024-03-23T07:48:21;13.10;99.90
40758;DHT22;26462;47.384;19.218;2024-03-23T07:51:00;13.00;99.90
40758;DHT22;26462;47.384;19.218;2024-03-23T07:53:27;12.70;99.90
40758;DHT22;26462;47.384;19.218;2024-03-23T07:55:56;12.60;99.90
40758;DHT22;26462;47.384;19.218;2024-03-23T07:58:22;12.40;99.90
40758;DHT22;26462;47.384;19.218;2024-03-23T08:00:50;12.30;99.90
40758;DHT22;26462;47.384;19.218;2024-03-23T08:03:16;12.40;99.90
40758;DHT22;26462;47.384;19.218;2024-03-23T08:05:45;12.80;99.90
40758;DHT22;26462;47.384;19.218;2024-03-23T08:08:12;13.30;99.90
40758;DHT22;26462;47.384;19.218;2024-03-23T08:10:47;13.50;99.90
40758;DHT22;26462;47.384;19.218;2024-03-23T08:13:14;13.80;99.90
40758;DHT22;26462;47.384;19.218;2024-03-23T08:15:41;14.00;99.90
40758;DHT22;26462;47.384;19.218;2024-03-23T08:18:09;14.10;99.90
40758;DHT22;26462;47.384;19.218;2024-03-23T08:20:36;14.00;99.90
40758;DHT22;26462;47.384;19.218;2024-03-23T08:23:05;14.00;99.90
40758;DHT22;26462;47.384;19.218;2024-03-23T08:25:33;14.10;99.90
40758;DHT22;26462;47.384;19.218;2024-03-23T08:27:59;14.10;99.90
40758;DHT22;26462;47.384;19.218;2024-03-23T08:30:28;14.30;99.90
40758;DHT22;26462;47.384;19.218;2024-03-23T08:32:55;14.20;99.90
40758;DHT22;26462;47.384;19.218;2024-03-23T08:35:22;14.20;99.90
40758;DHT22;26462;47.384;19.218;2024-03-23T08:37:49;14.30;99.90
40758;DHT22;26462;47.384;19.218;2024-03-23T08:40:20;14.40;99.90
40758;DHT22;26462;47.384;19.218;2024-03-23T08:42:50;14.60;99.90
40758;DHT22;26462;47.384;19.218;2024-03-23T08:45:18;14.70;99.90
40758;DHT22;26462;47.384;19.218;2024-03-23T08:47:44;14.60;99.90
40758;DHT22;26462;47.384;19.218;2024-03-23T08:50:12;14.90;99.90
40758;DHT22;26462;47.384;19.218;2024-03-23T08:52:38;14.80;99.90
40758;DHT22;26462;47.384;19.218;2024-03-23T08:55:06;14.90;99.90
40758;DHT22;26462;47.384;19.218;2024-03-23T08:57:34;15.20;99.90
40758;DHT22;26462;47.384;19.218;2024-03-23T09:00:02;15.30;99.90
40758;DHT22;26462;47.384;19.218;2024-03-23T09:02:28;15.40;99.90
40758;DHT22;26462;47.384;19.218;2024-03-23T09:04:56;15.60;99.90
40758;DHT22;26462;47.384;19.218;2024-03-23T09:07:22;15.60;99.90
40758;DHT22;26462;47.384;19.218;2024-03-23T09:09:49;15.70;99.90
40758;DHT22;26462;47.384;19.218;2024-03-23T09:12:16;15.90;99.90
40758;DHT22;26462;47.384;19.218;2024-03-23T09:14:45;15.80;99.90
40758;DHT22;26462;47.384;19.218;2024-03-23T09:17:11;15.80;99.90
40758;DHT22;26462;47.384;19.218;2024-03-23T09:19:40;15.80;99.90
40758;DHT22;26462;47.384;19.218;2024-03-23T09:22:07;15.70;99.90
40758;DHT22;26462;47.384;19.218;2024-03-23T09:24:34;15.80;99.90
40758;DHT22;26462;47.384;19.218;2024-03-23T09:27:01;15.80;99.90
40758;DHT22;26462;47.384;19.218;2024-03-23T09:29:29;15.90;99.90
40758;DHT22;26462;47.384;19.218;2024-03-23T09:31:56;16.10;99.90
40758;DHT22;26462;47.384;19.218;2024-03-23T09:34:24;16.30;99.90
40758;DHT22;26462;47.384;19.218;2024-03-23T09:36:51;16.40;99.90
40758;DHT22;26462;47.384;19.218;2024-03-23T09:39:19;16.50;99.70
40758;DHT22;26462;47.384;19.218;2024-03-23T09:41:45;16.80;99.10
40758;DHT22;26462;47.384;19.218;2024-03-23T09:44:13;16.90;98.20
40758;DHT22;26462;47.384;19.218;2024-03-23T09:46:39;16.90;98.10
40758;DHT22;26462;47.384;19.218;2024-03-23T09:49:08;16.80;97.00
40758;DHT22;26462;47.384;19.218;2024-03-23T09:51:36;16.60;96.50
40758;DHT22;26462;47.384;19.218;2024-03-23T09:54:04;16.70;96.70
40758;DHT22;26462;47.384;19.218;2024-03-23T09:56:30;17.10;96.60
40758;DHT22;26462;47.384;19.218;2024-03-23T09:59:01;17.60;95.20
40758;DHT22;26462;47.384;19.218;2024-03-23T10:01:29;17.70;94.40
40758;DHT22;26462;47.384;19.218;2024-03-23T10:03:57;17.50;93.60
40758;DHT22;26462;47.384;19.218;2024-03-23T10:06:25;17.40;93.30
40758;DHT22;26462;47.384;19.218;2024-03-23T10:08:52;17.20;93.40
40758;DHT22;26462;47.384;19.218;2024-03-23T10:11:20;17.20;93.70
40758;DHT22;26462;47.384;19.218;2024-03-23T10:13:48;17.30;92.50
40758;DHT22;26462;47.384;19.218;2024-03-23T10:16:22;17.20;92.10
40758;DHT22;26462;47.384;19.218;2024-03-23T10:18:50;17.30;92.00
40758;DHT22;26462;47.384;19.218;2024-03-23T10:21:16;17.50;92.20
40758;DHT22;26462;47.384;19.218;2024-03-23T10:23:45;17.90;91.20
40758;DHT22;26462;47.384;19.218;2024-03-23T10:26:13;18.10;91.30
40758;DHT22;26462;47.384;19.218;2024-03-23T10:28:53;18.20;90.10
40758;DHT22;26462;47.384;19.218;2024-03-23T10:31:20;18.10;90.80
40758;DHT22;26462;47.384;19.218;2024-03-23T10:33:48;18.30;90.00
40758;DHT22;26462;47.384;19.218;2024-03-23T10:36:14;18.30;90.20
40758;DHT22;26462;47.384;19.218;2024-03-23T10:38:44;18.00;88.80
40758;DHT22;26462;47.384;19.218;2024-03-23T10:41:11;17.90;88.90
40758;DHT22;26462;47.384;19.218;2024-03-23T10:43:39;17.90;90.20
40758;DHT22;26462;47.384;19.218;2024-03-23T10:46:05;17.80;88.70
40758;DHT22;26462;47.384;19.218;2024-03-23T10:48:33;18.00;88.80
40758;DHT22;26462;47.384;19.218;2024-03-23T10:50:59;18.10;89.50
40758;DHT22;26462;47.384;19.218;2024-03-23T10:53:28;18.30;88.00
40758;DHT22;26462;47.384;19.218;2024-03-23T10:55:56;18.60;88.00
40758;DHT22;26462;47.384;19.218;2024-03-23T11:00:54;18.60;86.80
40758;DHT22;26462;47.384;19.218;2024-03-23T11:03:35;18.70;86.40
40758;DHT22;26462;47.384;19.218;2024-03-23T11:06:03;18.80;87.20
40758;DHT22;26462;47.384;19.218;2024-03-23T11:08:32;18.80;87.20
40758;DHT22;26462;47.384;19.218;2024-03-23T11:11:22;18.80;85.30
40758;DHT22;26462;47.384;19.218;2024-03-23T11:13:53;18.90;85.80
40758;DHT22;26462;47.384;19.218;2024-03-23T11:16:22;18.90;85.00
40758;DHT22;26462;47.384;19.218;2024-03-23T11:18:51;18.90;85.80
40758;DHT22;26462;47.384;19.218;2024-03-23T11:21:54;19.00;84.60
40758;DHT22;26462;47.384;19.218;2024-03-23T11:24:22;18.90;83.30
40758;DHT22;26462;47.384;19.218;2024-03-23T11:26:49;19.00;81.10
40758;DHT22;26462;47.384;19.218;2024-03-23T11:29:17;18.90;81.20
40758;DHT22;26462;47.384;19.218;2024-03-23T11:31:47;19.00;80.40
40758;DHT22;26462;47.384;19.218;2024-03-23T11:34:16;19.00;80.00
40758;DHT22;26462;47.384;19.218;2024-03-23T11:36:42;18.90;80.50
40758;DHT22;26462;47.384;19.218;2024-03-23T11:39:13;19.00;80.70
40758;DHT22;26462;47.384;19.218;2024-03-23T11:41:46;18.90;80.40
40758;DHT22;26462;47.384;19.218;2024-03-23T11:44:19;19.00;80.20
40758;DHT22;26462;47.384;19.218;2024-03-23T11:46:46;19.10;80.80
40758;DHT22;26462;47.384;19.218;2024-03-23T11:49:24;19.20;81.60
40758;DHT22;26462;47.384;19.218;2024-03-23T11:51:51;19.30;80.80
40758;DHT22;26462;47.384;19.218;2024-03-23T11:54:21;19.30;79.80
40758;DHT22;26462;47.384;19.218;2024-03-23T11:56:55;19.20;79.00
40758;DHT22;26462;47.384;19.218;2024-03-23T11:59:35;19.30;79.70
40758;DHT22;26462;47.384;19.218;2024-03-23T12:02:06;19.30;79.10
40758;DHT22;26462;47.384;19.218;2024-03-23T12:04:34;19.30;78.80
40758;DHT22;26462;47.384;19.218;2024-03-23T12:07:15;19.30;78.40
40758;DHT22;26462;47.384;19.218;2024-03-23T12:09:45;19.30;77.60
40758;DHT22;26462;47.384;19.218;2024-03-23T12:12:15;19.30;78.20
40758;DHT22;26462;47.384;19.218;2024-03-23T12:14:44;19.40;77.40
40758;DHT22;26462;47.384;19.218;2024-03-23T12:17:12;19.40;77.30
40758;DHT22;26462;47.384;19.218;2024-03-23T12:19:40;19.50;77.20
40758;DHT22;26462;47.384;19.218;2024-03-23T12:22:07;19.50;78.50
40758;DHT22;26462;47.384;19.218;2024-03-23T12:24:35;19.50;78.30
40758;DHT22;26462;47.384;19.218;2024-03-23T12:27:02;19.40;79.00
40758;DHT22;26462;47.384;19.218;2024-03-23T12:29:31;19.40;79.50
40758;DHT22;26462;47.384;19.218;2024-03-23T12:32:01;19.30;78.80
40758;DHT22;26462;47.384;19.218;2024-03-23T12:34:29;19.30;79.90
40758;DHT22;26462;47.384;19.218;2024-03-23T12:36:57;19.20;80.20
40758;DHT22;26462;47.384;19.218;2024-03-23T12:39:23;19.10;79.00
40758;DHT22;26462;47.384;19.218;2024-03-23T12:41:51;19.00;80.30
40758;DHT22;26462;47.384;19.218;2024-03-23T12:44:19;19.00;80.80
40758;DHT22;26462;47.384;19.218;2024-03-23T12:46:47;19.10;81.30
40758;DHT22;26462;47.384;19.218;2024-03-23T12:49:14;19.00;80.90
40758;DHT22;26462;47.384;19.218;2024-03-23T12:51:48;19.00;81.40
40758;DHT22;26462;47.384;19.218;2024-03-23T12:54:19;19.00;81.00
40758;DHT22;26462;47.384;19.218;2024-03-23T12:56:46;19.00;81.60
40758;DHT22;26462;47.384;19.218;2024-03-23T12:59:12;18.90;81.00
40758;DHT22;26462;47.384;19.218;2024-03-23T13:01:40;18.90;83.10
40758;DHT22;26462;47.384;19.218;2024-03-23T13:04:06;18.80;84.20
40758;DHT22;26462;47.384;19.218;2024-03-23T13:06:35;18.80;84.90
40758;DHT22;26462;47.384;19.218;2024-03-23T13:09:02;18.70;85.00
40758;DHT22;26462;47.384;19.218;2024-03-23T13:11:30;18.70;85.90
40758;DHT22;26462;47.384;19.218;2024-03-23T13:13:56;18.60;86.20
40758;DHT22;26462;47.384;19.218;2024-03-23T13:16:24;18.60;85.40
40758;DHT22;26462;47.384;19.218;2024-03-23T13:18:50;18.50;86.30
40758;DHT22;26462;47.384;19.218;2024-03-23T13:21:18;18.40;86.10
40758;DHT22;26462;47.384;19.218;2024-03-23T13:23:48;18.30;86.10
40758;DHT22;26462;47.384;19.218;2024-03-23T13:26:16;18.40;86.10
40758;DHT22;26462;47.384;19.218;2024-03-23T13:28:43;18.30;86.00
40758;DHT22;26462;47.384;19.218;2024-03-23T13:31:10;18.30;86.90
40758;DHT22;26462;47.384;19.218;2024-03-23T13:33:37;18.20;86.80
40758;DHT22;26462;47.384;19.218;2024-03-23T13:36:05;18.20;87.40
40758;DHT22;26462;47.384;19.218;2024-03-23T13:38:31;18.20;86.50
40758;DHT22;26462;47.384;19.218;2024-03-23T13:41:00;18.30;83.30
40758;DHT22;26462;47.384;19.218;2024-03-23T13:43:27;18.20;80.60
40758;DHT22;26462;47.384;19.218;2024-03-23T13:45:56;18.20;80.60
40758;DHT22;26462;47.384;19.218;2024-03-23T13:48:24;18.20;83.60
40758;DHT22;26462;47.384;19.218;2024-03-23T13:50:58;18.20;85.30
40758;DHT22;26462;47.384;19.218;2024-03-23T13:53:24;18.10;86.60
40758;DHT22;26462;47.384;19.218;2024-03-23T13:55:52;18.10;87.40
40758;DHT22;26462;47.384;19.218;2024-03-23T13:58:20;18.10;87.40
40758;DHT22;26462;47.384;19.218;2024-03-23T14:00:48;18.10;86.90
40758;DHT22;26462;47.384;19.218;2024-03-23T14:03:14;18.10;87.10
40758;DHT22;26462;47.384;19.218;2024-03-23T14:05:43;18.10;87.50
40758;DHT22;26462;47.384;19.218;2024-03-23T14:08:10;18.10;87.40
40758;DHT22;26462;47.384;19.218;2024-03-23T14:10:41;18.00;87.80
40758;DHT22;26462;47.384;19.218;2024-03-23T14:13:07;17.90;88.20
40758;DHT22;26462;47.384;19.218;2024-03-23T14:15:36;17.90;88.70
40758;DHT22;26462;47.384;19.218;2024-03-23T14:18:03;17.90;88.90
40758;DHT22;26462;47.384;19.218;2024-03-23T14:20:30;17.80;89.10
40758;DHT22;26462;47.384;19.218;2024-03-23T14:22:57;17.80;89.50
40758;DHT22;26462;47.384;19.218;2024-03-23T14:25:24;17.90;86.70
40758;DHT22;26462;47.384;19.218;2024-03-23T14:27:53;17.90;84.60
40758;DHT22;26462;47.384;19.218;2024-03-23T14:30:21;17.80;81.80
40758;DHT22;26462;47.384;19.218;2024-03-23T14:32:48;17.80;81.60
40758;DHT22;26462;47.384;19.218;2024-03-23T14:35:17;17.80;82.10
40758;DHT22;26462;47.384;19.218;2024-03-23T14:37:43;17.70;81.40
40758;DHT22;26462;47.384;19.218;2024-03-23T14:40:13;17.70;80.60
40758;DHT22;26462;47.384;19.218;2024-03-23T14:42:39;17.80;79.00
40758;DHT22;26462;47.384;19.218;2024-03-23T14:45:08;17.80;79.10
40758;DHT22;26462;47.384;19.218;2024-03-23T14:47:34;17.80;79.70
40758;DHT22;26462;47.384;19.218;2024-03-23T14:50:03;17.70;79.80
40758;DHT22;26462;47.384;19.218;2024-03-23T14:52:30;17.60;80.50
40758;DHT22;26462;47.384;19.218;2024-03-23T14:54:57;17.60;80.20
40758;DHT22;26462;47.384;19.218;2024-03-23T14:57:24;17.60;80.30
40758;DHT22;26462;47.384;19.218;2024-03-23T14:59:51;17.60;80.10
40758;DHT22;26462;47.384;19.218;2024-03-23T15:02:18;17.60;80.30
40758;DHT22;26462;47.384;19.218;2024-03-23T15:04:45;17.50;80.70
40758;DHT22;26462;47.384;19.218;2024-03-23T15:07:13;17.50;80.30
40758;DHT22;26462;47.384;19.218;2024-03-23T15:09:40;17.40;80.80
40758;DHT22;26462;47.384;19.218;2024-03-23T15:12:07;17.40;81.00
40758;DHT22;26462;47.384;19.218;2024-03-23T15:14:35;17.40;81.10
40758;DHT22;26462;47.384;19.218;2024-03-23T15:17:01;17.30;81.00
40758;DHT22;26462;47.384;19.218;2024-03-23T15:19:33;17.40;81.30
40758;DHT22;26462;47.384;19.218;2024-03-23T15:21:59;17.30;81.60
40758;DHT22;26462;47.384;19.218;2024-03-23T15:24:28;17.30;81.80
40758;DHT22;26462;47.384;19.218;2024-03-23T15:26:54;17.30;81.90
40758;DHT22;26462;47.384;19.218;2024-03-23T15:29:22;17.20;82.50
40758;DHT22;26462;47.384;19.218;2024-03-23T15:31:49;17.20;82.90
40758;DHT22;26462;47.384;19.218;2024-03-23T15:34:18;17.10;83.20
40758;DHT22;26462;47.384;19.218;2024-03-23T15:36:47;17.20;83.50
40758;DHT22;26462;47.384;19.218;2024-03-23T15:39:16;17.20;83.30
40758;DHT22;26462;47.384;19.218;2024-03-23T15:41:45;17.10;84.20
40758;DHT22;26462;47.384;19.218;2024-03-23T15:44:13;17.10;84.00
40758;DHT22;26462;47.384;19.218;2024-03-23T15:46:39;17.00;84.50
40758;DHT22;26462;47.384;19.218;2024-03-23T15:49:07;17.00;84.40
40758;DHT22;26462;47.384;19.218;2024-03-23T15:51:33;16.90;84.80
40758;DHT22;26462;47.384;19.218;2024-03-23T15:54:03;17.00;85.60
40758;DHT22;26462;47.384;19.218;2024-03-23T15:56:29;16.90;84.80
40758;DHT22;26462;47.384;19.218;2024-03-23T15:58:58;16.80;85.20
40758;DHT22;26462;47.384;19.218;2024-03-23T16:01:31;16.80;85.50
40758;DHT22;26462;47.384;19.218;2024-03-23T16:04:00;16.80;86.00
40758;DHT22;26462;47.384;19.218;2024-03-23T16:06:26;16.70;86.40
40758;DHT22;26462;47.384;19.218;2024-03-23T16:08:53;16.60;86.60
40758;DHT22;26462;47.384;19.218;2024-03-23T16:11:20;16.60;88.00
40758;DHT22;26462;47.384;19.218;2024-03-23T16:13:47;16.50;87.90
40758;DHT22;26462;47.384;19.218;2024-03-23T16:16:15;16.40;88.60
40758;DHT22;26462;47.384;19.218;2024-03-23T16:18:42;16.40;88.50
40758;DHT22;26462;47.384;19.218;2024-03-23T16:21:10;16.40;89.00
40758;DHT22;26462;47.384;19.218;2024-03-23T16:23:37;16.40;89.20